createdAt,value
2024-03-19T00:00:29.564Z,1.00
2024-03-19T00:01:29.542Z,1.03
2024-03-19T00:02:29.531Z,1.04
2024-03-19T00:03:29.541Z,1.01
2024-03-19T00:04:29.517Z,1.07
2024-03-19T00:05:29.501Z,1.06
2024-03-19T00:06:29.508Z,1.08
2024-03-19T00:07:29.498Z,1.10
2024-03-19T00:08:29.486Z,1.10
2024-03-19T00:09:29.459Z,1.00
2024-03-19T00:10:29.446Z,1.00
2024-03-19T00:11:29.440Z,0.98
2024-03-19T00:12:29.544Z,0.88
2024-03-19T00:13:29.416Z,0.86
2024-03-19T00:14:29.402Z,0.80
2024-03-19T00:15:29.406Z,0.75
2024-03-19T00:16:29.397Z,0.80
2024-03-19T00:17:29.406Z,0.85
2024-03-19T00:18:29.362Z,0.85
2024-03-19T00:19:29.355Z,0.76
2024-03-19T00:20:29.342Z,0.76
2024-03-19T00:21:29.343Z,0.62
2024-03-19T00:22:29.339Z,0.58
2024-03-19T00:23:29.310Z,0.65
2024-03-19T00:24:29.297Z,0.62
2024-03-19T00:25:29.287Z,0.65
2024-03-19T00:26:29.293Z,0.67
2024-03-19T00:27:29.268Z,0.67
2024-03-19T00:28:29.257Z,0.67
2024-03-19T00:29:29.246Z,0.68
2024-03-19T00:30:29.232Z,0.67
2024-03-19T00:31:29.238Z,0.72
2024-03-19T00:32:29.239Z,0.80
2024-03-19T00:33:29.203Z,0.79
2024-03-19T00:34:29.191Z,0.79
2024-03-19T00:35:29.195Z,0.82
2024-03-19T00:36:29.194Z,0.80
2024-03-19T00:37:29.186Z,0.78
2024-03-19T00:38:29.165Z,0.80
2024-03-19T00:39:29.149Z,0.76
2024-03-19T00:40:29.152Z,0.83
2024-03-19T00:41:29.133Z,0.79
2024-03-19T00:42:29.110Z,0.80
2024-03-19T00:43:29.110Z,0.79
2024-03-19T00:44:29.088Z,0.80
2024-03-19T00:45:29.090Z,0.70
2024-03-19T00:46:29.066Z,0.71
2024-03-19T00:47:29.079Z,0.78
2024-03-19T00:48:29.065Z,0.80
2024-03-19T00:49:29.056Z,0.71
2024-03-19T00:50:29.043Z,0.79
2024-03-19T00:51:29.014Z,0.75
2024-03-19T00:52:29.004Z,0.64
2024-03-19T00:53:28.999Z,0.78
2024-03-19T00:54:29.002Z,0.76
2024-03-19T00:55:28.973Z,0.70
2024-03-19T00:56:28.966Z,0.64
2024-03-19T00:57:28.951Z,0.61
2024-03-19T00:58:28.943Z,0.65
2024-03-19T00:59:28.958Z,0.62
2024-03-19T01:00:28.922Z,0.71
2024-03-19T01:01:28.911Z,0.65
2024-03-19T01:02:28.899Z,0.76
2024-03-19T01:03:28.957Z,0.62
2024-03-19T01:04:31.766Z,0.62
2024-03-19T01:05:28.868Z,0.71
2024-03-19T01:06:28.857Z,0.67
2024-03-19T01:07:28.848Z,0.65
2024-03-19T01:08:28.851Z,0.68
2024-03-19T01:09:28.827Z,0.67
2024-03-19T01:10:28.816Z,0.67
2024-03-19T01:11:28.806Z,0.68
2024-03-19T01:12:28.797Z,0.67
2024-03-19T01:13:28.811Z,0.76
2024-03-19T01:14:28.778Z,0.76
2024-03-19T01:15:28.766Z,0.70
2024-03-19T01:16:28.753Z,0.78
2024-03-19T01:17:28.778Z,0.76
2024-03-19T01:18:28.758Z,0.76
2024-03-19T01:19:28.732Z,0.79
2024-03-19T01:20:28.755Z,0.80
2024-03-19T01:21:28.703Z,0.71
2024-03-19T01:22:28.727Z,0.71
2024-03-19T01:23:28.682Z,0.67
2024-03-19T01:24:28.672Z,0.62
2024-03-19T01:25:28.677Z,0.68
2024-03-19T01:26:28.648Z,0.64
2024-03-19T01:27:28.650Z,0.49
2024-03-19T01:28:28.628Z,0.51
2024-03-19T01:29:28.624Z,0.52
2024-03-19T01:30:28.610Z,0.52
2024-03-19T01:31:28.625Z,0.52
2024-03-19T01:32:28.643Z,0.60
2024-03-19T01:33:28.579Z,0.53
2024-03-19T01:34:28.565Z,0.53
2024-03-19T01:35:28.556Z,0.51
2024-03-19T01:36:28.578Z,0.53
2024-03-19T01:37:28.538Z,0.51
2024-03-19T01:38:28.533Z,0.53
2024-03-19T01:39:28.517Z,0.48
2024-03-19T01:40:28.525Z,0.38
2024-03-19T01:41:28.503Z,0.42
2024-03-19T01:42:28.482Z,0.34
2024-03-19T01:43:28.472Z,0.36
2024-03-19T01:44:28.459Z,0.36
2024-03-19T01:45:28.477Z,0.43
2024-03-19T01:46:28.458Z,0.42
2024-03-19T01:47:28.448Z,0.39
2024-03-19T01:48:28.417Z,0.43
2024-03-19T01:49:28.413Z,0.46
2024-03-19T01:50:28.417Z,0.43
2024-03-19T01:51:28.393Z,0.48
2024-03-19T01:52:28.393Z,0.49
2024-03-19T01:53:28.368Z,0.53
2024-03-19T01:54:28.383Z,0.45
2024-03-19T01:55:28.360Z,0.53
2024-03-19T01:56:28.343Z,0.53
2024-03-19T01:57:28.325Z,0.52
2024-03-19T01:58:28.312Z,0.53
2024-03-19T01:59:28.329Z,0.60
2024-03-19T02:00:28.307Z,0.51
2024-03-19T02:01:28.281Z,0.52
2024-03-19T02:02:28.271Z,0.52
2024-03-19T02:03:28.266Z,0.60
2024-03-19T02:04:28.276Z,0.65
2024-03-19T02:05:28.242Z,0.68
2024-03-19T02:06:28.231Z,0.67
2024-03-19T02:07:28.221Z,0.67
2024-03-19T02:08:28.238Z,0.62
2024-03-19T02:09:28.223Z,0.68
2024-03-19T02:10:28.189Z,0.67
2024-03-19T02:11:28.178Z,0.76
2024-03-19T02:12:28.182Z,0.76
2024-03-19T02:13:28.342Z,0.75
2024-03-19T02:14:28.159Z,0.82
2024-03-19T02:15:28.138Z,0.80
2024-03-19T02:16:28.138Z,0.75
2024-03-19T02:17:28.117Z,0.72
2024-03-19T02:18:28.135Z,0.85
2024-03-19T02:19:28.095Z,0.80
2024-03-19T02:20:28.082Z,0.83
2024-03-19T02:21:28.073Z,0.82
2024-03-19T02:22:28.075Z,0.70
2024-03-19T02:23:28.091Z,0.72
2024-03-19T02:24:28.058Z,0.64
2024-03-19T02:25:28.033Z,0.60
2024-03-19T02:26:28.024Z,0.65
2024-03-19T02:27:28.029Z,0.64
2024-03-19T02:28:28.001Z,0.75
2024-03-19T02:29:27.992Z,0.71
2024-03-19T02:30:27.980Z,0.72
2024-03-19T02:31:27.970Z,0.79
2024-03-19T02:32:27.977Z,0.82
2024-03-19T02:33:27.948Z,0.80
2024-03-19T02:34:27.936Z,0.67
2024-03-19T02:35:27.927Z,0.61
2024-03-19T02:36:27.925Z,0.60
2024-03-19T02:37:27.922Z,0.43
2024-03-19T02:38:27.901Z,0.51
2024-03-19T02:39:27.890Z,0.39
2024-03-19T02:40:27.891Z,0.49
2024-03-19T02:41:27.872Z,0.57
2024-03-19T02:42:27.855Z,0.57
2024-03-19T02:43:27.849Z,0.53
2024-03-19T02:44:27.861Z,0.57
2024-03-19T02:45:27.824Z,0.52
2024-03-19T02:46:27.830Z,0.57
2024-03-19T02:47:27.814Z,0.57
2024-03-19T02:48:27.799Z,0.48
2024-03-19T02:49:27.784Z,0.39
2024-03-19T02:50:27.957Z,0.45
2024-03-19T02:51:27.902Z,0.42
2024-03-19T02:52:27.869Z,0.39
2024-03-19T02:53:27.747Z,0.38
2024-03-19T02:54:27.734Z,0.39
2024-03-19T02:55:27.733Z,0.41
2024-03-19T02:56:27.724Z,0.38
2024-03-19T02:57:27.708Z,0.39
2024-03-19T02:58:27.703Z,0.34
2024-03-19T02:59:27.704Z,0.39
2024-03-19T03:00:27.685Z,0.36
2024-03-19T03:01:27.660Z,0.36
2024-03-19T03:02:27.647Z,0.41
2024-03-19T03:03:27.646Z,0.42
2024-03-19T03:04:27.647Z,0.43
2024-03-19T03:05:27.631Z,0.43
2024-03-19T03:06:27.613Z,0.42
2024-03-19T03:07:27.607Z,0.38
2024-03-19T03:08:27.588Z,0.39
2024-03-19T03:09:27.616Z,0.38
2024-03-19T03:10:27.586Z,0.36
2024-03-19T03:11:27.573Z,0.36
2024-03-19T03:12:27.560Z,0.51
2024-03-19T03:13:27.541Z,0.51
2024-03-19T03:14:27.545Z,0.57
2024-03-19T03:15:27.519Z,0.61
2024-03-19T03:16:27.507Z,0.52
2024-03-19T03:17:27.514Z,0.49
2024-03-19T03:18:27.518Z,0.48
2024-03-19T03:19:27.495Z,0.43
2024-03-19T03:20:27.472Z,0.38
2024-03-19T03:21:27.454Z,0.42
2024-03-19T03:22:27.448Z,0.41
2024-03-19T03:23:27.462Z,0.36
2024-03-19T03:24:27.421Z,0.39
2024-03-19T03:25:27.411Z,0.31
2024-03-19T03:26:27.401Z,0.33
2024-03-19T03:27:27.412Z,0.24
2024-03-19T03:28:27.410Z,0.23
2024-03-19T03:29:27.373Z,0.21
2024-03-19T03:30:27.360Z,0.13
2024-03-19T03:31:27.378Z,0.18
2024-03-19T03:32:27.400Z,0.12
2024-03-19T03:33:27.331Z,0.18
2024-03-19T03:34:27.319Z,0.28
2024-03-19T03:35:27.307Z,0.30
2024-03-19T03:36:27.296Z,0.25
2024-03-19T03:37:27.298Z,0.30
2024-03-19T03:38:27.275Z,0.39
2024-03-19T03:39:27.271Z,0.41
2024-03-19T03:40:27.257Z,0.24
2024-03-19T03:41:27.266Z,0.28
2024-03-19T03:42:30.065Z,0.24
2024-03-19T03:43:28.224Z,0.25
2024-03-19T03:44:27.232Z,0.28
2024-03-19T03:45:27.219Z,0.31
2024-03-19T03:46:27.211Z,0.33
2024-03-19T03:47:27.196Z,0.16
2024-03-19T03:48:27.175Z,0.25
2024-03-19T03:49:27.164Z,0.21
2024-03-19T03:50:27.161Z,0.18
2024-03-19T03:51:27.153Z,0.10
2024-03-19T03:52:27.140Z,0.07
2024-03-19T03:53:27.133Z,0.05
2024-03-19T03:54:27.114Z,0.10
2024-03-19T03:55:27.108Z,0.02
2024-03-19T03:56:27.105Z,-0.01
2024-03-19T03:57:27.079Z,-0.09
2024-03-19T03:58:27.066Z,-0.01
2024-03-19T03:59:27.063Z,-0.04
2024-03-19T04:00:27.075Z,-0.04
2024-03-19T04:01:27.037Z,0.03
2024-03-19T04:02:27.023Z,0.02
2024-03-19T04:03:27.022Z,-0.01
2024-03-19T04:04:27.003Z,0.05
2024-03-19T04:05:27.006Z,0.02
2024-03-19T04:06:26.982Z,-0.01
2024-03-19T04:07:26.972Z,-0.05
2024-03-19T04:08:26.967Z,0.02
2024-03-19T04:09:26.966Z,0.02
2024-03-19T04:10:26.959Z,-0.04
2024-03-19T04:11:26.927Z,-0.01
2024-03-19T04:12:26.918Z,0.10
2024-03-19T04:13:26.907Z,0.00
2024-03-19T04:14:26.913Z,0.06
2024-03-19T04:15:26.886Z,0.09
2024-03-19T04:16:26.894Z,0.09
2024-03-19T04:17:26.875Z,0.16
2024-03-19T04:18:26.869Z,0.10
2024-03-19T04:19:26.872Z,0.18
2024-03-19T04:20:26.833Z,0.07
2024-03-19T04:21:26.834Z,0.12
2024-03-19T04:22:26.814Z,0.10
2024-03-19T04:23:26.864Z,0.07
2024-03-19T04:24:26.792Z,0.09
2024-03-19T04:25:26.784Z,0.03
2024-03-19T04:26:26.770Z,0.06
2024-03-19T04:27:26.769Z,0.06
2024-03-19T04:28:26.773Z,0.05
2024-03-19T04:29:26.741Z,0.06
2024-03-19T04:30:26.735Z,0.06
2024-03-19T04:31:26.731Z,0.00
2024-03-19T04:32:26.740Z,-0.04
2024-03-19T04:33:26.718Z,-0.08
2024-03-19T04:34:26.692Z,-0.06
2024-03-19T04:35:26.680Z,-0.04
2024-03-19T04:36:26.678Z,-0.15
2024-03-19T04:37:26.677Z,-0.09
2024-03-19T04:38:26.653Z,-0.09
2024-03-19T04:39:26.649Z,0.03
2024-03-19T04:40:26.690Z,0.10
2024-03-19T04:41:26.631Z,0.06
2024-03-19T04:42:26.622Z,0.07
2024-03-19T04:43:26.598Z,0.15
2024-03-19T04:44:26.592Z,0.20
2024-03-19T04:45:26.574Z,0.23
2024-03-19T04:46:26.586Z,0.15
2024-03-19T04:47:26.572Z,0.13
2024-03-19T04:48:26.557Z,0.10
2024-03-19T04:49:26.553Z,0.09
2024-03-19T04:50:26.528Z,0.00
2024-03-19T04:51:26.529Z,0.07
2024-03-19T04:52:26.522Z,0.07
2024-03-19T04:53:26.492Z,0.07
2024-03-19T04:54:26.507Z,0.05
2024-03-19T04:55:26.481Z,0.09
2024-03-19T04:56:26.498Z,0.10
2024-03-19T04:57:26.450Z,0.02
2024-03-19T04:58:26.453Z,0.05
2024-03-19T04:59:26.449Z,0.09
2024-03-19T05:00:26.507Z,0.23
2024-03-19T05:01:26.427Z,0.16
2024-03-19T05:02:26.406Z,0.10
2024-03-19T05:03:26.390Z,0.13
2024-03-19T05:04:26.394Z,0.09
2024-03-19T05:05:26.391Z,0.00
2024-03-19T05:06:26.361Z,0.07
2024-03-19T05:07:26.348Z,0.05
2024-03-19T05:08:26.339Z,-0.04
2024-03-19T05:09:26.325Z,-0.01
2024-03-19T05:10:26.329Z,0.02
2024-03-19T05:11:26.310Z,0.06
2024-03-19T05:12:26.297Z,0.06
2024-03-19T05:13:26.286Z,-0.01
2024-03-19T05:14:26.302Z,-0.15
2024-03-19T05:15:26.275Z,-0.08
2024-03-19T05:16:26.260Z,-0.04
2024-03-19T05:17:26.239Z,-0.09
2024-03-19T05:18:26.232Z,-0.09
2024-03-19T05:19:26.240Z,-0.08
2024-03-19T05:20:26.229Z,-0.12
2024-03-19T05:21:26.207Z,-0.05
2024-03-19T05:22:26.198Z,-0.09
2024-03-19T05:23:26.204Z,-0.16
2024-03-19T05:24:26.183Z,-0.22
2024-03-19T05:25:26.159Z,-0.27
2024-03-19T05:26:26.150Z,-0.11
2024-03-19T05:27:26.144Z,-0.11
2024-03-19T05:28:26.155Z,-0.11
2024-03-19T05:29:26.144Z,-0.08
2024-03-19T05:30:26.123Z,-0.11
2024-03-19T05:31:26.105Z,-0.12
2024-03-19T05:32:26.087Z,-0.09
2024-03-19T05:33:26.121Z,-0.16
2024-03-19T05:34:26.076Z,-0.08
2024-03-19T05:35:26.072Z,-0.13
2024-03-19T05:36:26.180Z,-0.06
2024-03-19T05:37:26.047Z,-0.05
2024-03-19T05:38:26.037Z,-0.09
2024-03-19T05:39:26.033Z,-0.05
2024-03-19T05:40:26.005Z,-0.05
2024-03-19T05:41:26.009Z,0.02
2024-03-19T05:42:26.048Z,0.02
2024-03-19T05:43:25.966Z,0.10
2024-03-19T05:44:25.963Z,0.12
2024-03-19T05:45:25.947Z,0.15
2024-03-19T05:46:25.948Z,0.15
2024-03-19T05:47:25.972Z,0.30
2024-03-19T05:48:25.921Z,0.27
2024-03-19T05:49:25.939Z,0.27
2024-03-19T05:50:25.899Z,0.34
2024-03-19T05:51:25.902Z,0.49
2024-03-19T05:52:25.908Z,0.52
2024-03-19T05:53:25.863Z,0.61
2024-03-19T05:54:25.861Z,0.68
2024-03-19T05:55:25.851Z,0.76
2024-03-19T05:56:25.859Z,0.83
2024-03-19T05:57:25.831Z,0.86
2024-03-19T05:58:25.813Z,0.94
2024-03-19T05:59:25.800Z,0.98
2024-03-19T06:00:25.806Z,1.15
2024-03-19T06:01:25.833Z,1.19
2024-03-19T06:02:25.787Z,1.26
2024-03-19T06:03:25.760Z,1.47
2024-03-19T06:04:25.755Z,1.62
2024-03-19T06:05:25.774Z,1.60
2024-03-19T06:06:25.738Z,1.60
2024-03-19T06:07:25.727Z,1.52
2024-03-19T06:08:25.744Z,1.69
2024-03-19T06:09:25.705Z,1.68
2024-03-19T06:10:25.717Z,1.78
2024-03-19T06:11:25.686Z,2.01
2024-03-19T06:12:25.684Z,2.22
2024-03-19T06:13:25.660Z,2.45
2024-03-19T06:14:25.644Z,2.58
2024-03-19T06:15:25.646Z,2.89
2024-03-19T06:16:25.630Z,3.16
2024-03-19T06:17:25.626Z,3.44
2024-03-19T06:18:25.602Z,3.89
2024-03-19T06:19:27.035Z,4.32
2024-03-19T06:20:25.610Z,4.46
2024-03-19T06:21:25.569Z,4.69
2024-03-19T06:22:25.582Z,4.96
2024-03-19T06:23:25.546Z,5.20
2024-03-19T06:24:25.610Z,5.28
2024-03-19T06:25:25.540Z,5.10
2024-03-19T06:26:25.520Z,5.20
2024-03-19T06:27:25.501Z,5.41
2024-03-19T06:28:25.521Z,5.50
2024-03-19T06:29:25.517Z,5.70
2024-03-19T06:30:25.478Z,5.92
2024-03-19T06:31:25.467Z,6.13
2024-03-19T06:32:25.453Z,6.41
2024-03-19T06:33:25.474Z,6.65
2024-03-19T06:34:25.434Z,6.86
2024-03-19T06:35:25.426Z,7.01
2024-03-19T06:36:25.410Z,7.08
2024-03-19T06:37:25.401Z,7.34
2024-03-19T06:38:25.399Z,7.58
2024-03-19T06:39:25.387Z,7.74
2024-03-19T06:40:25.392Z,7.85
2024-03-19T06:41:25.354Z,8.10
2024-03-19T06:42:25.364Z,8.37
2024-03-19T06:43:25.349Z,8.45
2024-03-19T06:44:25.324Z,8.50
2024-03-19T06:45:25.310Z,8.60
2024-03-19T06:46:25.304Z,8.93
2024-03-19T06:47:25.319Z,8.93
2024-03-19T06:48:25.379Z,9.04
2024-03-19T06:49:25.271Z,9.25
2024-03-19T06:50:25.258Z,9.39
2024-03-19T06:51:25.250Z,9.67
2024-03-19T06:52:25.256Z,9.71
2024-03-19T06:53:25.223Z,9.83
2024-03-19T06:54:25.211Z,9.97
2024-03-19T06:55:25.209Z,9.96
2024-03-19T06:56:25.221Z,10.07
2024-03-19T06:57:25.205Z,10.37
2024-03-19T06:58:25.179Z,10.56
2024-03-19T06:59:25.162Z,10.62
2024-03-19T07:00:25.152Z,10.77
2024-03-19T07:01:25.153Z,10.83
2024-03-19T07:02:25.131Z,11.03
2024-03-19T07:03:25.113Z,11.28
2024-03-19T07:04:25.102Z,11.25
2024-03-19T07:05:25.096Z,11.39
2024-03-19T07:06:25.099Z,11.53
2024-03-19T07:07:25.070Z,11.64
2024-03-19T07:08:25.065Z,11.78
2024-03-19T07:09:25.063Z,11.96
2024-03-19T07:10:25.171Z,12.13
2024-03-19T07:11:25.050Z,11.99
2024-03-19T07:12:25.036Z,11.35
2024-03-19T07:13:25.007Z,11.39
2024-03-19T07:14:24.999Z,11.41
2024-03-19T07:15:24.996Z,11.49
2024-03-19T07:16:24.978Z,11.57
2024-03-19T07:17:25.018Z,11.59
2024-03-19T07:18:24.966Z,11.34
2024-03-19T07:19:24.945Z,11.20
2024-03-19T07:20:24.965Z,11.16
2024-03-19T07:21:24.920Z,11.20
2024-03-19T07:22:24.912Z,11.20
2024-03-19T07:23:24.895Z,11.35
2024-03-19T07:24:24.905Z,11.59
2024-03-19T07:25:24.910Z,11.75
2024-03-19T07:26:24.867Z,12.02
2024-03-19T07:27:24.853Z,12.31
2024-03-19T07:28:24.861Z,12.08
2024-03-19T07:29:24.869Z,11.80
2024-03-19T07:30:24.832Z,11.80
2024-03-19T07:31:25.633Z,11.56
2024-03-19T07:32:24.815Z,11.24
2024-03-19T07:33:24.786Z,11.24
2024-03-19T07:34:25.179Z,11.20
2024-03-19T07:35:24.766Z,10.98
2024-03-19T07:36:24.756Z,10.94
2024-03-19T07:37:24.861Z,10.96
2024-03-19T07:38:24.744Z,11.16
2024-03-19T07:39:24.751Z,11.31
2024-03-19T07:40:24.723Z,10.77
2024-03-19T07:41:24.702Z,10.53
2024-03-19T07:42:24.695Z,10.65
2024-03-19T07:43:24.703Z,10.71
2024-03-19T07:44:24.696Z,10.96
2024-03-19T07:45:24.660Z,11.14
2024-03-19T07:46:24.669Z,10.89
2024-03-19T07:47:24.699Z,10.96
2024-03-19T07:48:24.691Z,10.94
2024-03-19T07:49:24.624Z,10.71
2024-03-19T07:50:24.617Z,10.21
2024-03-19T07:51:24.872Z,9.89
2024-03-19T07:52:24.652Z,9.66
2024-03-19T07:53:24.589Z,9.48
2024-03-19T07:54:24.654Z,9.28
2024-03-19T07:55:24.606Z,9.09
2024-03-19T07:56:24.570Z,8.91
2024-03-19T07:57:24.550Z,8.91
2024-03-19T07:58:24.518Z,8.86
2024-03-19T07:59:24.515Z,8.62
2024-03-19T08:00:24.515Z,8.42
2024-03-19T08:01:24.486Z,8.51
2024-03-19T08:02:24.504Z,8.69
2024-03-19T08:03:24.476Z,9.09
2024-03-19T08:04:24.460Z,9.31
2024-03-19T08:05:26.893Z,9.61
2024-03-19T08:06:24.471Z,9.64
2024-03-19T08:07:24.446Z,9.82
2024-03-19T08:08:24.429Z,10.01
2024-03-19T08:09:24.410Z,9.99
2024-03-19T08:10:24.398Z,10.14
2024-03-19T08:11:24.395Z,10.55
2024-03-19T08:12:26.048Z,10.81
2024-03-19T08:13:24.382Z,10.84
2024-03-19T08:14:24.353Z,10.99
2024-03-19T08:15:24.336Z,11.14
2024-03-19T08:16:24.358Z,11.25
2024-03-19T08:17:24.342Z,10.84
2024-03-19T08:18:24.313Z,10.17
2024-03-19T08:19:24.304Z,9.93
2024-03-19T08:20:24.303Z,10.15
2024-03-19T08:21:24.288Z,10.40
2024-03-19T08:22:24.265Z,10.80
2024-03-19T08:23:24.262Z,10.71
2024-03-19T08:24:24.251Z,10.80
2024-03-19T08:25:24.262Z,10.95
2024-03-19T08:26:24.239Z,11.27
2024-03-19T08:27:24.212Z,10.78
2024-03-19T08:28:25.109Z,10.21
2024-03-19T08:29:24.200Z,10.04
2024-03-19T08:30:24.205Z,10.14
2024-03-19T08:31:24.210Z,10.60
2024-03-19T08:32:24.175Z,11.09
2024-03-19T08:33:24.180Z,11.46
2024-03-19T08:34:24.169Z,11.56
2024-03-19T08:35:24.188Z,11.57
2024-03-19T08:36:24.126Z,11.61
2024-03-19T08:37:24.127Z,11.54
2024-03-19T08:38:24.104Z,11.70
2024-03-19T08:39:24.128Z,11.85
2024-03-19T08:40:24.089Z,11.74
2024-03-19T08:41:24.064Z,11.82
2024-03-19T08:42:24.058Z,11.57
2024-03-19T08:43:24.069Z,11.10
2024-03-19T08:44:24.057Z,10.83
2024-03-19T08:45:24.016Z,10.83
2024-03-19T08:46:24.028Z,10.95
2024-03-19T08:47:24.033Z,11.10
2024-03-19T08:48:24.022Z,11.54
2024-03-19T08:49:24.000Z,11.83
2024-03-19T08:50:23.974Z,12.26
2024-03-19T08:51:23.955Z,12.59
2024-03-19T08:52:23.965Z,12.79
2024-03-19T08:53:23.947Z,13.18
2024-03-19T08:54:23.922Z,13.18
2024-03-19T08:55:23.919Z,12.46
2024-03-19T08:56:23.903Z,11.62
2024-03-19T08:57:23.922Z,11.28
2024-03-19T08:58:23.898Z,11.09
2024-03-19T08:59:23.868Z,11.07
2024-03-19T09:00:23.854Z,11.27
2024-03-19T09:01:23.849Z,11.72
2024-03-19T09:02:23.856Z,11.93
2024-03-19T09:03:23.826Z,11.68
2024-03-19T09:04:23.829Z,11.86
2024-03-19T09:05:25.651Z,11.99
2024-03-19T09:06:23.792Z,12.19
2024-03-19T09:07:23.820Z,11.77
2024-03-19T09:08:23.777Z,11.75
2024-03-19T09:09:23.762Z,11.77
2024-03-19T09:10:23.754Z,11.61
2024-03-19T09:11:23.754Z,11.71
2024-03-19T09:12:23.737Z,11.74
2024-03-19T09:13:23.714Z,11.78
2024-03-19T09:14:23.702Z,11.75
2024-03-19T09:15:23.700Z,11.80
2024-03-19T09:16:23.697Z,11.93
2024-03-19T09:17:23.671Z,11.50
2024-03-19T09:18:23.670Z,11.43
2024-03-19T09:19:23.655Z,11.83
2024-03-19T09:20:23.691Z,11.82
2024-03-19T09:21:23.647Z,12.20
2024-03-19T09:22:23.614Z,12.46
2024-03-19T09:23:23.618Z,12.88
2024-03-19T09:24:23.595Z,13.38
2024-03-19T09:25:23.626Z,13.65
2024-03-19T09:26:23.579Z,13.81
2024-03-19T09:27:23.663Z,13.98
2024-03-19T09:28:23.553Z,13.62
2024-03-19T09:29:23.552Z,13.51
2024-03-19T09:30:23.555Z,13.03
2024-03-19T09:31:23.523Z,12.77
2024-03-19T09:32:23.519Z,12.59
2024-03-19T09:33:23.498Z,12.56
2024-03-19T09:34:23.495Z,12.27
2024-03-19T09:35:23.482Z,12.08
2024-03-19T09:36:23.486Z,12.13
2024-03-19T09:37:23.452Z,12.11
2024-03-19T09:38:23.444Z,12.13
2024-03-19T09:39:23.458Z,12.30
2024-03-19T09:40:23.451Z,12.24
2024-03-19T09:41:23.420Z,12.59
2024-03-19T09:42:23.404Z,12.57
2024-03-19T09:43:23.575Z,12.42
2024-03-19T09:44:23.399Z,12.44
2024-03-19T09:45:23.365Z,12.57
2024-03-19T09:46:23.373Z,13.02
2024-03-19T09:47:23.433Z,13.49
2024-03-19T09:48:23.352Z,13.65
2024-03-19T09:49:23.350Z,13.70
2024-03-19T09:50:23.313Z,13.81
2024-03-19T09:51:23.323Z,14.20
2024-03-19T09:52:23.306Z,14.17
2024-03-19T09:53:23.324Z,14.20
2024-03-19T09:54:23.265Z,14.07
2024-03-19T09:55:23.269Z,13.41
2024-03-19T09:56:23.247Z,13.17
2024-03-19T09:57:23.261Z,13.29
2024-03-19T09:58:23.235Z,13.41
2024-03-19T09:59:23.216Z,13.58
2024-03-19T10:00:23.252Z,13.80
2024-03-19T10:01:23.223Z,13.94
2024-03-19T10:02:23.233Z,13.99
2024-03-19T10:03:23.190Z,14.34
2024-03-19T10:04:23.165Z,14.38
2024-03-19T10:05:23.156Z,14.35
2024-03-19T10:06:23.146Z,14.28
2024-03-19T10:07:23.145Z,14.17
2024-03-19T10:08:23.126Z,14.01
2024-03-19T10:09:23.263Z,14.27
2024-03-19T10:10:23.093Z,13.87
2024-03-19T10:11:23.097Z,13.91
2024-03-19T10:12:23.099Z,14.10
2024-03-19T10:13:23.146Z,14.06
2024-03-19T10:14:23.077Z,13.95
2024-03-19T10:15:23.046Z,13.74
2024-03-19T10:16:23.132Z,13.52
2024-03-19T10:17:23.055Z,12.87
2024-03-19T10:18:23.024Z,12.88
2024-03-19T10:19:22.994Z,13.37
2024-03-19T10:20:30.700Z,13.54
2024-03-19T10:21:22.991Z,13.51
2024-03-19T10:22:22.973Z,13.41
2024-03-19T10:23:22.976Z,13.63
2024-03-19T10:24:22.958Z,13.81
2024-03-19T10:25:23.002Z,13.63
2024-03-19T10:26:22.956Z,13.62
2024-03-19T10:27:22.913Z,13.55
2024-03-19T10:28:22.911Z,13.54
2024-03-19T10:29:22.898Z,13.62
2024-03-19T10:30:22.939Z,13.49
2024-03-19T10:31:22.884Z,13.03
2024-03-19T10:32:26.663Z,12.75
2024-03-19T10:33:22.847Z,12.96
2024-03-19T10:34:22.843Z,13.17
2024-03-19T10:35:22.850Z,13.09
2024-03-19T10:36:22.870Z,12.79
2024-03-19T10:37:22.806Z,12.85
2024-03-19T10:38:32.508Z,12.57
2024-03-19T10:39:23.809Z,12.26
2024-03-19T10:40:22.797Z,12.04
2024-03-19T10:41:22.783Z,11.94
2024-03-19T10:42:22.749Z,11.68
2024-03-19T10:43:22.741Z,11.64
2024-03-19T10:44:22.741Z,11.16
2024-03-19T10:45:22.788Z,10.76
2024-03-19T10:46:22.702Z,10.68
2024-03-19T10:47:22.742Z,10.68
2024-03-19T10:48:22.683Z,10.59
2024-03-19T10:49:22.683Z,10.37
2024-03-19T10:50:22.711Z,9.78
2024-03-19T10:51:22.686Z,9.52
2024-03-19T10:52:22.645Z,9.60
2024-03-19T10:53:22.780Z,9.48
2024-03-19T10:54:22.638Z,9.31
2024-03-19T10:55:22.627Z,9.27
2024-03-19T10:56:22.699Z,9.20
2024-03-19T10:57:22.590Z,9.21
2024-03-19T10:58:22.652Z,9.09
2024-03-19T10:59:22.660Z,8.93
2024-03-19T11:00:22.553Z,8.96
2024-03-19T11:01:22.545Z,8.90
2024-03-19T11:02:22.531Z,8.76
2024-03-19T11:03:22.536Z,8.60
2024-03-19T11:04:22.511Z,8.57
2024-03-19T11:05:22.525Z,8.45
2024-03-19T11:06:22.496Z,8.44
2024-03-19T11:07:22.497Z,8.45
2024-03-19T11:08:22.540Z,8.48
2024-03-19T11:09:22.459Z,8.51
2024-03-19T11:10:22.442Z,8.57
2024-03-19T11:11:22.434Z,8.58
2024-03-19T11:12:22.457Z,8.63
2024-03-19T11:13:22.413Z,8.57
2024-03-19T11:14:22.444Z,8.48
2024-03-19T11:15:22.397Z,8.45
2024-03-19T11:16:22.393Z,8.36
2024-03-19T11:17:22.380Z,8.45
2024-03-19T11:18:22.374Z,8.37
2024-03-19T11:19:22.352Z,8.50
2024-03-19T11:20:22.333Z,8.54
2024-03-19T11:21:22.342Z,8.72
2024-03-19T11:22:22.335Z,8.94
2024-03-19T11:23:22.303Z,8.81
2024-03-19T11:24:22.289Z,8.88
2024-03-19T11:25:22.282Z,8.90
2024-03-19T11:26:22.300Z,8.94
2024-03-19T11:27:22.257Z,9.02
2024-03-19T11:28:22.265Z,9.13
2024-03-19T11:29:22.238Z,9.04
2024-03-19T11:30:22.228Z,8.97
2024-03-19T11:31:22.235Z,8.96
2024-03-19T11:32:22.204Z,8.90
2024-03-19T11:33:22.197Z,8.87
2024-03-19T11:34:22.179Z,8.93
2024-03-19T11:35:22.194Z,8.87
2024-03-19T11:36:22.206Z,8.93
2024-03-19T11:37:22.169Z,9.01
2024-03-19T11:38:22.170Z,8.97
2024-03-19T11:39:22.174Z,9.01
2024-03-19T11:40:22.167Z,9.04
2024-03-19T11:41:27.655Z,8.97
2024-03-19T11:42:23.117Z,8.86
2024-03-19T11:43:22.094Z,8.86
2024-03-19T11:44:22.115Z,8.84
2024-03-19T11:45:22.072Z,8.83
2024-03-19T11:46:22.069Z,8.94
2024-03-19T11:47:22.043Z,8.81
2024-03-19T11:48:22.051Z,8.96
2024-03-19T11:49:22.033Z,8.84
2024-03-19T11:50:22.024Z,8.79
2024-03-19T11:51:22.000Z,8.87
2024-03-19T11:52:21.989Z,8.87
2024-03-19T11:53:21.976Z,8.88
2024-03-19T11:54:21.980Z,8.81
2024-03-19T11:55:21.955Z,8.76
2024-03-19T11:56:21.943Z,8.86
2024-03-19T11:57:21.932Z,8.81
2024-03-19T11:58:21.923Z,8.94
2024-03-19T11:59:21.930Z,9.01
2024-03-19T12:00:21.937Z,8.99
2024-03-19T12:01:21.889Z,8.97
2024-03-19T12:02:21.877Z,8.96
2024-03-19T12:03:21.884Z,9.06
2024-03-19T12:04:21.880Z,9.18
2024-03-19T12:05:21.847Z,9.23
2024-03-19T12:06:21.838Z,9.23
2024-03-19T12:07:21.825Z,9.16
2024-03-19T12:08:21.832Z,9.27
2024-03-19T12:09:21.813Z,9.23
2024-03-19T12:10:21.792Z,9.27
2024-03-19T12:11:21.784Z,9.30
2024-03-19T12:12:21.766Z,9.34
2024-03-19T12:13:21.780Z,9.32
2024-03-19T12:14:21.763Z,9.27
2024-03-19T12:15:21.738Z,9.31
2024-03-19T12:16:21.751Z,9.48
2024-03-19T12:17:21.732Z,9.50
2024-03-19T12:18:21.724Z,9.50
2024-03-19T12:19:21.695Z,9.50
2024-03-19T12:20:21.688Z,9.49
2024-03-19T12:21:21.670Z,9.53
2024-03-19T12:22:21.701Z,9.61
2024-03-19T12:23:21.650Z,9.63
2024-03-19T12:24:21.640Z,9.56
2024-03-19T12:25:21.631Z,9.58
2024-03-19T12:26:21.630Z,9.43
2024-03-19T12:27:21.638Z,9.46
2024-03-19T12:28:21.605Z,9.42
2024-03-19T12:29:21.601Z,9.48
2024-03-19T12:30:21.603Z,9.49
2024-03-19T12:31:21.577Z,9.35
2024-03-19T12:32:21.562Z,9.40
2024-03-19T12:33:23.497Z,9.38
2024-03-19T12:34:21.528Z,9.32
2024-03-19T12:35:22.264Z,9.28
2024-03-19T12:36:21.523Z,9.30
2024-03-19T12:37:21.503Z,9.30
2024-03-19T12:38:21.490Z,9.30
2024-03-19T12:39:21.487Z,9.31
2024-03-19T12:40:21.479Z,9.43
2024-03-19T12:41:21.462Z,9.46
2024-03-19T12:42:21.443Z,9.63
2024-03-19T12:43:21.432Z,9.61
2024-03-19T12:44:21.430Z,9.53
2024-03-19T12:45:21.419Z,9.61
2024-03-19T12:46:21.473Z,9.57
2024-03-19T12:47:21.396Z,9.46
2024-03-19T12:48:21.391Z,9.58
2024-03-19T12:49:21.394Z,9.63
2024-03-19T12:50:21.360Z,9.67
2024-03-19T12:51:21.345Z,9.85
2024-03-19T12:52:21.333Z,9.79
2024-03-19T12:53:21.327Z,9.88
2024-03-19T12:54:21.324Z,9.83
2024-03-19T12:55:21.300Z,9.93
2024-03-19T12:56:21.296Z,10.01
2024-03-19T12:57:29.137Z,10.04
2024-03-19T12:58:22.270Z,9.93
2024-03-19T12:59:21.274Z,9.99
2024-03-19T13:00:21.244Z,9.99
2024-03-19T13:01:21.235Z,9.99
2024-03-19T13:02:21.225Z,9.97
2024-03-19T13:03:21.226Z,9.99
2024-03-19T13:04:21.279Z,10.07
2024-03-19T13:05:21.187Z,10.06
2024-03-19T13:06:21.181Z,10.14
2024-03-19T13:07:21.175Z,10.17
2024-03-19T13:08:21.187Z,10.22
2024-03-19T13:09:21.145Z,10.19